地図

経路データ

SID SEASON NUMBER BASIN SUBBASIN NAME ISO_TIME NATURE LAT LON WMO_WIND WMO_PRES WMO_AGENCY TRACK_TYPE DIST2LAND LANDFALL IFLAG USA_AGENCY USA_ATCF_ID USA_LAT USA_LON USA_RECORD USA_STATUS USA_WIND USA_PRES USA_SSHS USA_R34_NE USA_R34_SE USA_R34_SW USA_R34_NW USA_R50_NE USA_R50_SE USA_R50_SW USA_R50_NW USA_R64_NE USA_R64_SE USA_R64_SW USA_R64_NW USA_POCI USA_ROCI USA_RMW USA_EYE TOKYO_LAT TOKYO_LON TOKYO_GRADE TOKYO_WIND TOKYO_PRES TOKYO_R50_DIR TOKYO_R50_LONG TOKYO_R50_SHORT TOKYO_R30_DIR TOKYO_R30_LONG TOKYO_R30_SHORT TOKYO_LAND CMA_LAT CMA_LON CMA_CAT CMA_WIND CMA_PRES HKO_LAT HKO_LON HKO_CAT HKO_WIND HKO_PRES NEWDELHI_LAT NEWDELHI_LON NEWDELHI_GRADE NEWDELHI_WIND NEWDELHI_PRES NEWDELHI_CI NEWDELHI_DP NEWDELHI_POCI REUNION_LAT REUNION_LON REUNION_TYPE REUNION_WIND REUNION_PRES REUNION_TNUM REUNION_CI REUNION_RMW REUNION_R34_NE REUNION_R34_SE REUNION_R34_SW REUNION_R34_NW REUNION_R50_NE REUNION_R50_SE REUNION_R50_SW REUNION_R50_NW REUNION_R64_NE REUNION_R64_SE REUNION_R64_SW REUNION_R64_NW BOM_LAT BOM_LON BOM_TYPE BOM_WIND BOM_PRES BOM_TNUM BOM_CI BOM_RMW BOM_R34_NE BOM_R34_SE BOM_R34_SW BOM_R34_NW BOM_R50_NE BOM_R50_SE BOM_R50_SW BOM_R50_NW BOM_R64_NE BOM_R64_SE BOM_R64_SW BOM_R64_NW BOM_ROCI BOM_POCI BOM_EYE BOM_POS_METHOD BOM_PRES_METHOD NADI_LAT NADI_LON NADI_CAT NADI_WIND NADI_PRES WELLINGTON_LAT WELLINGTON_LON WELLINGTON_WIND WELLINGTON_PRES DS824_LAT DS824_LON DS824_STAGE DS824_WIND DS824_PRES TD9636_LAT TD9636_LON TD9636_STAGE TD9636_WIND TD9636_PRES TD9635_LAT TD9635_LON TD9635_WIND TD9635_PRES TD9635_ROCI NEUMANN_LAT NEUMANN_LON NEUMANN_CLASS NEUMANN_WIND NEUMANN_PRES MLC_LAT MLC_LON MLC_CLASS MLC_WIND MLC_PRES USA_GUST BOM_GUST BOM_GUST_PER REUNION_GUST REUNION_GUST_PER USA_SEAHGT USA_SEARAD_NE USA_SEARAD_SE USA_SEARAD_SW USA_SEARAD_NW STORM_SPEED STORM_DIR
1880279N18275 1880 26 NA CS NOT_NAMED 1880-10-05 00:00:00 TS 18.2000 -85.1000 40 hurdat_atl main 257 238 O_____________ hurdat_atl AL091880 18.2000 -85.1000 TS 40 0 7 309
1880279N18275 1880 26 NA CS NOT_NAMED 1880-10-05 03:00:00 TS 18.4051 -85.3648 main 238 210 P_____________ AL091880 18.4051 -85.3648 TS 40 0 6 310
1880279N18275 1880 26 NA CS NOT_NAMED 1880-10-05 06:00:00 TS 18.6000 -85.6000 40 hurdat_atl main 210 184 O_____________ hurdat_atl AL091880 18.6000 -85.6000 TS 40 0 6 313
1880279N18275 1880 26 NA CS NOT_NAMED 1880-10-05 09:00:00 TS 18.7849 -85.7927 main 184 157 P_____________ AL091880 18.7849 -85.7927 TS 40 0 6 316
1880279N18275 1880 26 NA CS NOT_NAMED 1880-10-05 12:00:00 TS 19.0556 -86.0556 40 hurdat_atl main 143 105 O____________O hurdat_atl AL091880 19.0000 -86.0000 TS 40 0 19.5000 -86.5000 TS 35 8 317
1880279N18275 1880 26 NA CS NOT_NAMED 1880-10-05 15:00:00 TS 19.3821 -86.3760 main 105 76 P____________P AL091880 19.2626 -86.2925 TS 40 0 19.8601 -86.7098 TS 37 9 320
1880279N18275 1880 26 NA CS NOT_NAMED 1880-10-05 18:00:00 TS 19.7636 -86.6818 40 hurdat_atl main 80 53 O____________O hurdat_atl AL091880 19.6000 -86.6000 TS 40 0 20.2000 -86.9000 TS 40 10 327
1880279N18275 1880 26 NA CS NOT_NAMED 1880-10-05 21:00:00 TS 20.1875 -86.9391 main 53 10 P____________P AL091880 20.0275 -86.8799 TS 45 0 20.5075 -87.0576 TS 40 9 333
1880279N18275 1880 26 NA CS NOT_NAMED 1880-10-06 00:00:00 TS 20.6000 -87.1333 50 hurdat_atl main 10 0 O____________O hurdat_atl AL091880 20.5000 -87.1000 TS 50 0 20.8000 -87.2000 TS 40 9 339
1880279N18275 1880 26 NA NA NOT_NAMED 1880-10-06 03:00:00 TS 21.0050 -87.2751 main 0 0 P____________P AL091880 20.9574 -87.2376 TS 50 0 21.1000 -87.3501 TS 40 8 345
1880279N18275 1880 26 NA NA NOT_NAMED 1880-10-06 06:00:00 TS 21.4000 -87.3667 50 hurdat_atl main 0 0 O____________O hurdat_atl AL091880 21.4000 -87.3000 TS 50 0 21.4000 -87.5000 TS 40 8 349
1880279N18275 1880 26 NA GM NOT_NAMED 1880-10-06 09:00:00 TS 21.7817 -87.4417 main 44 39 P____________P AL091880 21.8300 -87.3300 TS 50 0 21.6850 -87.6650 TS 42 7 352
1880279N18275 1880 26 NA GM NOT_NAMED 1880-10-06 12:00:00 TS 22.1333 -87.4667 50 hurdat_atl main 70 70 O____________O hurdat_atl AL091880 22.2000 -87.3000 TS 50 0 22.0000 -87.8000 TS 45 7 0
1880279N18275 1880 26 NA GM NOT_NAMED 1880-10-06 15:00:00 TS 22.4308 -87.4391 main 105 105 P____________P AL091880 22.4575 -87.2224 TS 50 0 22.3775 -87.8726 TS 45 6 8
1880279N18275 1880 26 NA GM NOT_NAMED 1880-10-06 18:00:00 TS 22.7333 -87.3667 50 hurdat_atl main 137 137 O____________O hurdat_atl AL091880 22.7000 -87.1000 TS 50 0 22.8000 -87.9000 TS 45 7 12
1880279N18275 1880 26 NA GM NOT_NAMED 1880-10-06 21:00:00 TS 23.1067 -87.2792 main 180 180 P____________P AL091880 23.0350 -86.9650 TS 55 0 23.2500 -87.9076 TS 45 8 13
1880279N18275 1880 26 NA GM NOT_NAMED 1880-10-07 00:00:00 TS 23.5000 -87.1667 60 hurdat_atl main 223 223 O____________O hurdat_atl AL091880 23.4000 -86.8000 TS 60 0 23.7000 -87.9000 TS 45 8 16
1880279N18275 1880 26 NA GM NOT_NAMED 1880-10-07 03:00:00 TS 23.8717 -87.0482 main 268 268 P____________P AL091880 23.7575 -86.6075 TS 60 0 24.1000 -87.9297 TS 45 8 18
1880279N18275 1880 26 NA GM NOT_NAMED 1880-10-07 06:00:00 TS 24.2333 -86.9000 60 hurdat_atl main 301 301 O____________O hurdat_atl AL091880 24.1000 -86.4000 TS 60 0 24.5000 -87.9000 TS 45 8 23
1880279N18275 1880 26 NA GM NOT_NAMED 1880-10-07 09:00:00 TS 24.5833 -86.7124 main 346 346 P____________P AL091880 24.4000 -86.1998 TS 60 0 24.9500 -87.7376 TS 47 8 28
1880279N18275 1880 26 NA GM NOT_NAMED 1880-10-07 12:00:00 TS 24.9333 -86.5000 60 hurdat_atl main 353 353 O____________O hurdat_atl AL091880 24.7000 -86.0000 TS 60 0 25.4000 -87.5000 TS 50 8 29
1880279N18275 1880 26 NA GM NOT_NAMED 1880-10-07 15:00:00 TS 25.2875 -86.2807 main 372 366 P____________P AL091880 25.0275 -85.7924 TS 60 0 25.8075 -87.2574 TS 50 8 28
1880279N18275 1880 26 NA GM NOT_NAMED 1880-10-07 18:00:00 TS 25.6667 -86.0667 60 hurdat_atl main 391 353 O____________O hurdat_atl AL091880 25.4000 -85.6000 TS 60 0 26.2000 -87.0000 TS 50 9 22
1880279N18275 1880 26 NA GM NOT_NAMED 1880-10-07 21:00:00 TS 26.1046 -85.9153 main 353 317 P____________P AL091880 25.8575 -85.4425 TS 65 1 26.5987 -86.8611 TS 50 9 21
1880279N18275 1880 26 NA GM NOT_NAMED 1880-10-08 00:00:00 TS 26.5333 -85.7000 70 hurdat_atl main 317 261 O____________O hurdat_atl AL091880 26.3000 -85.3000 HU 70 1 27.0000 -86.5000 TS 50 9 35
1880279N18275 1880 26 NA GM NOT_NAMED 1880-10-08 03:00:00 TS 26.8722 -85.3116 main 261 211 P____________P AL091880 26.6073 -85.1795 HU 70 1 27.4018 -85.5758 TS 52 10 49
1880279N18275 1880 26 NA GM NOT_NAMED 1880-10-08 06:00:00 TS 27.2000 -84.8333 70 hurdat_atl main 202 163 O____________O hurdat_atl AL091880 26.9000 -85.0000 HU 70 1 27.8000 -84.5000 TS 55 11 49
1880279N18275 1880 26 NA GM NOT_NAMED 1880-10-08 09:00:00 TS 27.5662 -84.4285 main 151 98 P____________P AL091880 27.2544 -84.7463 HU 70 1 28.1897 -83.7928 TS 57 12 47
1880279N18275 1880 26 NA GM NOT_NAMED 1880-10-08 12:00:00 TS 28.0000 -83.8667 70 hurdat_atl main 98 9 O____________O hurdat_atl AL091880 27.7000 -84.3000 HU 70 1 28.6000 -83.0000 TS 60 20 53
1880279N18275 1880 26 NA GM NOT_NAMED 1880-10-08 15:00:00 TS 28.7470 -82.6605 main 9 0 P____________P AL091880 28.6026 -83.0996 HU 70 1 29.0358 -81.7822 TS 60 20 57
1880279N18275 1880 26 NA NA NOT_NAMED 1880-10-08 18:00:00 TS 29.1000 -81.9333 70 hurdat_atl main 0 0 O____________O hurdat_atl AL091880 28.9000 -82.7000 HU 70 1 29.5000 -80.4000 TS 60 10 65
1880279N18275 1880 26 NA NA NOT_NAMED 1880-10-08 19:00:00 TS 29.0205 -81.9759 70 hurdat_atl main 0 0 O____________P hurdat_atl AL091880 28.7000 -83.0000 L HU 70 1 29.6614 -79.9276 TS 60 9 65
1880279N18275 1880 26 NA NA NOT_NAMED 1880-10-08 21:00:00 TS 29.2913 -81.4553 main 0 0 P____________P AL091880 28.9400 -82.6887 HU 65 1 29.9938 -78.9884 TS 62 26 56
1880279N18275 1880 26 NA NA NOT_NAMED 1880-10-09 00:00:00 TS 30.2333 -79.9333 60 hurdat_atl main 141 141 O____________O hurdat_atl AL091880 30.1000 -81.0000 TS 60 0 30.5000 -77.8000 HU 65 26 53
1880279N18275 1880 26 NA NA NOT_NAMED 1880-10-09 03:00:00 TS 30.8479 -79.0327 main 217 207 P____________P AL091880 30.7731 -79.9814 TS 65 1 30.9976 -77.1353 HU 67 19 53
1880279N18275 1880 26 NA NA NOT_NAMED 1880-10-09 06:00:00 TS 31.3667 -78.1667 70 hurdat_atl main 211 211 O____________O hurdat_atl AL091880 31.3000 -78.9000 HU 70 1 31.5000 -76.7000 HU 70 20 60
1880279N18275 1880 26 NA NA NOT_NAMED 1880-10-09 09:00:00 TS 31.8178 -77.0264 main 252 245 P____________P AL091880 31.7120 -77.4498 HU 70 1 32.0293 -76.1796 HU 70 21 68
1880279N18275 1880 26 NA NA NOT_NAMED 1880-10-09 12:00:00 TS 32.1667 -75.8667 70 hurdat_atl main 272 272 O____________O hurdat_atl AL091880 32.0000 -76.0000 HU 70 1 32.5000 -75.6000 HU 70 19 71
1880279N18275 1880 26 NA NA NOT_NAMED 1880-10-09 15:00:00 TS 32.4388 -74.8633 main 296 291 P____________P AL091880 32.2432 -74.8517 HU 70 1 32.8299 -74.8866 HU 65 17 75
1880279N18275 1880 26 NA NA NOT_NAMED 1880-10-09 18:00:00 TS 32.5909 -73.9545 70 hurdat_atl main 328 328 O____________O hurdat_atl AL091880 32.4000 -73.9000 HU 70 1 33.1000 -74.1000 TS 60 15 81
1880279N18275 1880 26 NA NA NOT_NAMED 1880-10-09 21:00:00 TS 32.6604 -73.1457 main 383 383 P____________P AL091880 32.4777 -73.1068 HU 70 1 33.3909 -73.3014 TS 50 14 88
1880279N18275 1880 26 NA NA NOT_NAMED 1880-10-10 00:00:00 TS 32.6333 -72.3222 70 hurdat_atl main 449 449 O____________O hurdat_atl AL091880 32.5000 -72.3000 HU 70 1 33.7000 -72.5000 TS 40 16 95
1880279N18275 1880 26 NA NA NOT_NAMED 1880-10-10 03:00:00 TS 32.5087 -71.1998 main 538 538 P_____________ AL091880 32.5087 -71.1998 HU 70 1 TS 19 94
1880279N18275 1880 26 NA NA NOT_NAMED 1880-10-10 06:00:00 TS 32.5000 -70.1000 70 hurdat_atl main 617 617 O_____________ hurdat_atl AL091880 32.5000 -70.1000 HU 70 1 16 90
1880279N18275 1880 26 NA NA NOT_NAMED 1880-10-10 09:00:00 TS 32.4959 -69.3599 main 669 669 P_____________ AL091880 32.4959 -69.3599 HU 70 1 13 90
1880279N18275 1880 26 NA NA NOT_NAMED 1880-10-10 12:00:00 TS 32.5000 -68.5000 70 hurdat_atl main 740 740 O_____________ hurdat_atl AL091880 32.5000 -68.5000 HU 70 1 19 90
1880279N18275 1880 26 NA NA NOT_NAMED 1880-10-10 15:00:00 TS 32.5070 -67.1550 main 845 845 P_____________ AL091880 32.5070 -67.1550 HU 70 1 25 90
1880279N18275 1880 26 NA NA NOT_NAMED 1880-10-10 18:00:00 TS 32.5000 -65.5000 70 hurdat_atl main 988 O_____________ hurdat_atl AL091880 32.5000 -65.5000 HU 70 1 28 90

IBTrACS Databaseについて

本データベースは、米国NOAAが公開する1842年以降の世界の熱帯低気圧のベストトラックデータアーカイブInternational Best Track Archive for Climate Stewardship (IBTrACS)を、ウェブで閲覧しやすい形式に変換したものです。

最終更新日:2021-12-03